Time;durP1;ratioP1;P1;durP2;ratioP2;P2;SDS_P1;SDS_P2;PMS_P1;PMS_P2;Temp;Humidity;BMP_temperature;BMP_pressure;BME280_temperature;BME280_humidity;BME280_pressure;Samples;Min_cycle;Max_cycle;Signal;HPM_P1;HPM_P2
2022/03/28 00:00:05;;;;;;;17.13;5.80;;;6.70;99.90;;;;;;5012719;28;20125;-35
2022/03/28 00:02:32;;;;;;;20.40;6.25;;;6.70;99.90;;;;;;5012550;28;20054;-35
2022/03/28 00:04:59;;;;;;;15.23;6.07;;;6.70;99.90;;;;;;5011124;28;20046;-35
2022/03/28 00:07:25;;;;;;;20.10;6.43;;;6.70;99.90;;;;;;5012294;28;20073;-35
2022/03/28 00:09:52;;;;;;;18.92;5.70;;;6.70;99.90;;;;;;5012180;28;20045;-34
2022/03/28 00:12:20;;;;;;;19.92;6.63;;;6.70;99.90;;;;;;5012340;28;20042;-35
2022/03/28 00:14:47;;;;;;;25.35;6.00;;;6.80;99.90;;;;;;5012182;28;20046;-34
2022/03/28 00:17:14;;;;;;;9.52;5.07;;;6.80;99.90;;;;;;5008146;28;20033;-33
2022/03/28 00:19:40;;;;;;;10.30;5.68;;;6.80;99.90;;;;;;5010647;28;20457;-34
2022/03/28 00:22:07;;;;;;;10.32;5.38;;;6.80;99.90;;;;;;5012782;28;20085;-35
2022/03/28 00:24:34;;;;;;;7.45;3.92;;;6.80;99.90;;;;;;5011626;28;20124;-34
2022/03/28 00:27:01;;;;;;;7.97;4.53;;;6.90;99.90;;;;;;5011245;28;20108;-34
2022/03/28 00:29:29;;;;;;;8.70;4.32;;;6.90;99.90;;;;;;5012616;28;20076;-34
2022/03/28 00:31:56;;;;;;;9.18;4.85;;;6.90;99.90;;;;;;5012704;28;20042;-34
2022/03/28 00:34:23;;;;;;;7.60;3.97;;;6.90;99.90;;;;;;5011999;28;20357;-35
2022/03/28 00:36:50;;;;;;;8.30;4.47;;;6.90;99.90;;;;;;5012245;28;20069;-34
2022/03/28 00:39:19;;;;;;;15.77;4.60;;;6.90;99.90;;;;;;5012651;28;20060;-34
2022/03/28 00:41:46;;;;;;;7.88;4.45;;;6.80;99.90;;;;;;5011805;28;20474;-34
2022/03/28 00:44:13;;;;;;;10.25;4.57;;;6.80;99.90;;;;;;5011969;28;20056;-34
2022/03/28 00:46:41;;;;;;;13.35;4.47;;;6.80;99.90;;;;;;5012030;28;20041;-34
2022/03/28 00:49:08;;;;;;;11.73;4.93;;;6.80;99.90;;;;;;5012416;28;20402;-34
2022/03/28 00:51:34;;;;;;;11.48;5.18;;;6.80;99.90;;;;;;5012499;28;20042;-34
2022/03/28 00:54:01;;;;;;;16.92;5.55;;;6.70;99.90;;;;;;5010662;28;20085;-34
2022/03/28 00:56:28;;;;;;;17.42;5.53;;;6.70;99.90;;;;;;5012145;28;20381;-34
2022/03/28 00:58:55;;;;;;;19.08;6.07;;;6.70;99.90;;;;;;5012482;28;20042;-34
2022/03/28 01:01:22;;;;;;;16.92;6.15;;;6.80;99.90;;;;;;5012655;28;20044;-34
2022/03/28 01:03:50;;;;;;;18.83;6.63;;;6.80;99.90;;;;;;5011452;28;20054;-35
2022/03/28 01:06:17;;;;;;;20.50;7.75;;;6.80;99.90;;;;;;5008625;28;20042;-34
2022/03/28 01:08:43;;;;;;;15.20;7.57;;;6.80;99.90;;;;;;5011592;28;20080;-35
2022/03/28 01:11:10;;;;;;;20.83;7.18;;;6.80;99.90;;;;;;5010793;28;20465;-34
2022/03/28 01:13:38;;;;;;;14.95;7.20;;;6.70;99.90;;;;;;5011699;28;20129;-34
2022/03/28 01:16:05;;;;;;;16.95;7.85;;;6.70;99.90;;;;;;5011964;28;20056;-34
2022/03/28 01:18:31;;;;;;;23.15;8.10;;;6.70;99.90;;;;;;5001858;28;20046;-34
2022/03/28 01:20:59;;;;;;;17.88;9.15;;;6.70;99.90;;;;;;5012071;28;20496;-34
2022/03/28 01:23:26;;;;;;;19.20;8.23;;;6.70;99.90;;;;;;5011078;28;20046;-34
2022/03/28 01:25:53;;;;;;;50.28;10.18;;;6.80;99.90;;;;;;5011535;28;20042;-34
2022/03/28 01:28:20;;;;;;;24.17;8.98;;;6.70;99.90;;;;;;5010827;28;20073;-34
2022/03/28 01:30:47;;;;;;;30.67;9.73;;;6.70;99.90;;;;;;5012128;28;20433;-34
2022/03/28 01:33:13;;;;;;;77.38;10.38;;;6.70;99.90;;;;;;5014843;28;20477;-33
2022/03/28 01:35:41;;;;;;;62.53;11.82;;;6.70;99.90;;;;;;5015685;28;20121;-34
2022/03/28 01:38:11;;;;;;;30.60;12.75;;;6.70;99.90;;;;;;5014831;28;20073;-35
2022/03/28 01:40:38;;;;;;;39.53;11.82;;;6.60;99.90;;;;;;5015463;28;20103;-34
2022/03/28 01:43:05;;;;;;;55.80;11.50;;;6.70;99.90;;;;;;5014671;28;20053;-34
2022/03/28 01:45:32;;;;;;;29.90;12.27;;;6.70;99.90;;;;;;5015063;28;20490;-34
2022/03/28 01:47:58;;;;;;;32.00;13.55;;;6.80;99.90;;;;;;5015324;28;20393;-34
2022/03/28 01:50:25;;;;;;;126.82;15.88;;;6.80;99.90;;;;;;5011302;28;20046;-35
2022/03/28 01:52:52;;;;;;;34.58;14.85;;;6.80;99.90;;;;;;5013640;28;20072;-34
2022/03/28 01:55:20;;;;;;;33.85;14.95;;;6.80;99.90;;;;;;5007475;28;20504;-34
2022/03/28 01:57:47;;;;;;;33.33;15.02;;;6.90;99.90;;;;;;5014052;28;20121;-34
2022/03/28 02:00:16;;;;;;;43.88;15.27;;;6.90;99.90;;;;;;5014611;28;20381;-34
2022/03/28 02:02:44;;;;;;;139.02;19.45;;;6.90;99.90;;;;;;5013895;28;20129;-34
2022/03/28 02:05:11;;;;;;;107.68;18.95;;;6.90;99.90;;;;;;5014882;28;20046;-34
2022/03/28 02:07:40;;;;;;;84.82;19.55;;;6.90;99.90;;;;;;5014858;28;20041;-34
2022/03/28 02:10:07;;;;;;;69.80;17.17;;;6.90;99.90;;;;;;5012647;28;20046;-34
2022/03/28 02:12:35;;;;;;;97.40;17.77;;;6.90;99.90;;;;;;5014697;28;20050;-34
2022/03/28 02:15:02;;;;;;;34.70;18.08;;;6.90;99.90;;;;;;5012953;28;20049;-35
2022/03/28 02:17:30;;;;;;;21.60;14.20;;;6.80;99.90;;;;;;5013411;28;20060;-34
2022/03/28 02:19:57;;;;;;;39.22;16.05;;;6.90;99.90;;;;;;5015005;28;20064;-35
2022/03/28 02:22:24;;;;;;;83.45;17.35;;;6.90;99.90;;;;;;5014421;28;20129;-34
2022/03/28 02:24:50;;;;;;;59.53;16.08;;;6.90;99.90;;;;;;5013768;28;20429;-35
2022/03/28 02:27:17;;;;;;;63.95;16.95;;;6.90;99.90;;;;;;5008866;28;20048;-35
2022/03/28 02:29:45;;;;;;;61.20;16.88;;;6.90;99.90;;;;;;5014709;28;20375;-35
2022/03/28 02:32:12;;;;;;;65.70;17.08;;;6.80;99.90;;;;;;5014906;28;20042;-35
2022/03/28 02:34:39;;;;;;;146.77;19.45;;;6.80;99.90;;;;;;5013251;28;20388;-35
2022/03/28 02:37:06;;;;;;;41.60;16.27;;;6.80;99.90;;;;;;5014169;28;20585;-35
2022/03/28 02:39:32;;;;;;;33.15;15.82;;;6.70;99.90;;;;;;5013320;28;20068;-35
2022/03/28 02:41:59;;;;;;;34.78;17.75;;;6.70;99.90;;;;;;5014705;28;20046;-35
2022/03/28 02:44:26;;;;;;;130.30;19.35;;;6.80;99.90;;;;;;5011491;28;20461;-34
2022/03/28 02:46:54;;;;;;;35.60;17.55;;;6.80;99.90;;;;;;5013923;28;20060;-35
2022/03/28 02:49:20;;;;;;;117.93;21.92;;;6.90;99.90;;;;;;5012895;28;20045;-35
2022/03/28 02:51:47;;;;;;;135.90;23.13;;;6.90;99.90;;;;;;5012635;28;20050;-34
2022/03/28 02:54:14;;;;;;;129.02;21.27;;;6.80;99.90;;;;;;5012183;28;20045;-34
2022/03/28 02:56:41;;;;;;;174.02;23.50;;;6.80;99.90;;;;;;5013839;28;20042;-35
2022/03/28 02:59:08;;;;;;;260.83;28.60;;;6.70;99.90;;;;;;5013980;28;20054;-34
2022/03/28 03:01:34;;;;;;;248.60;28.88;;;6.70;99.90;;;;;;5012988;28;20081;-34
2022/03/28 03:04:02;;;;;;;225.25;26.23;;;6.70;99.90;;;;;;5013037;28;20053;-34
2022/03/28 03:06:29;;;;;;;287.38;26.95;;;6.60;99.90;;;;;;5013518;28;20056;-34
2022/03/28 03:08:56;;;;;;;205.93;26.15;;;6.50;99.90;;;;;;5014127;28;20125;-35
2022/03/28 03:11:23;;;;;;;169.82;25.95;;;6.50;99.90;;;;;;5012229;28;20132;-34
2022/03/28 03:13:49;;;;;;;270.17;28.08;;;6.50;99.90;;;;;;5013033;28;20042;-34
2022/03/28 03:16:16;;;;;;;92.38;24.60;;;6.50;99.90;;;;;;5007090;28;20045;-34
2022/03/28 03:18:43;;;;;;;40.67;23.75;;;6.50;99.90;;;;;;5012774;28;20133;-35
2022/03/28 03:21:11;;;;;;;70.70;22.83;;;6.50;99.90;;;;;;5012347;28;20564;-34
2022/03/28 03:23:38;;;;;;;61.45;22.45;;;6.60;99.90;;;;;;5011570;28;20121;-34
2022/03/28 03:26:05;;;;;;;60.95;22.73;;;6.60;99.90;;;;;;5013007;28;20046;-33
2022/03/28 03:28:31;;;;;;;68.05;23.20;;;6.60;99.90;;;;;;5012004;28;20049;-34
2022/03/28 03:30:58;;;;;;;205.48;23.60;;;6.60;99.90;;;;;;5012059;28;20093;-34
2022/03/28 03:33:25;;;;;;;64.90;21.90;;;6.70;99.90;;;;;;5011572;28;20489;-34
2022/03/28 03:35:51;;;;;;;79.28;20.30;;;6.60;99.90;;;;;;5012122;28;20045;-33
2022/03/28 03:38:19;;;;;;;125.75;23.05;;;6.70;99.90;;;;;;5004274;28;20051;-34
2022/03/28 03:40:46;;;;;;;103.45;21.50;;;6.60;99.90;;;;;;5007415;28;20395;-34
2022/03/28 03:43:13;;;;;;;29.42;19.15;;;6.60;99.90;;;;;;5010189;28;20042;-34
2022/03/28 03:45:39;;;;;;;52.15;21.52;;;6.60;99.90;;;;;;5011941;28;20050;-34
2022/03/28 03:48:06;;;;;;;132.43;22.13;;;6.60;99.90;;;;;;5012481;28;20041;-34
2022/03/28 03:50:33;;;;;;;95.00;22.58;;;6.60;99.90;;;;;;5012701;28;20046;-34
2022/03/28 03:53:00;;;;;;;67.43;22.35;;;6.60;99.90;;;;;;5011848;28;20050;-34
2022/03/28 03:55:28;;;;;;;50.88;21.88;;;6.70;99.90;;;;;;5012127;28;20128;-34
2022/03/28 03:57:55;;;;;;;90.35;22.50;;;6.70;99.90;;;;;;5012790;28;20129;-34
2022/03/28 04:00:23;;;;;;;83.28;23.70;;;6.70;99.90;;;;;;5012327;28;20049;-34
2022/03/28 04:02:50;;;;;;;91.25;21.52;;;6.70;99.90;;;;;;5011345;28;20065;-34
2022/03/28 04:05:17;;;;;;;71.72;19.40;;;6.60;99.90;;;;;;5011907;28;20113;-34
2022/03/28 04:07:44;;;;;;;58.72;21.10;;;6.60;99.90;;;;;;5012213;28;20120;-33
2022/03/28 04:10:10;;;;;;;57.13;20.70;;;6.50;99.90;;;;;;5010163;28;20046;-34
2022/03/28 04:12:38;;;;;;;105.03;21.90;;;6.50;99.90;;;;;;5012177;28;20412;-34
2022/03/28 04:15:07;;;;;;;103.35;22.88;;;6.50;99.90;;;;;;5010425;28;20092;-34
2022/03/28 04:17:39;;;;;;;85.22;22.58;;;6.40;99.90;;;;;;5010142;28;20045;-34
2022/03/28 04:20:07;;;;;;;38.72;21.35;;;6.40;99.90;;;;;;5010144;28;20056;-34
2022/03/28 04:22:34;;;;;;;61.97;22.10;;;6.40;99.90;;;;;;5012288;28;20052;-34
2022/03/28 04:25:00;;;;;;;68.80;21.63;;;6.40;99.90;;;;;;5010831;28;20046;-34
2022/03/28 04:27:27;;;;;;;58.10;20.92;;;6.40;99.90;;;;;;5012067;28;20406;-34
2022/03/28 04:29:55;;;;;;;46.28;21.50;;;6.30;99.90;;;;;;5012496;28;20393;-34
2022/03/28 04:32:22;;;;;;;57.22;22.80;;;6.30;99.90;;;;;;5012443;28;20100;-34
2022/03/28 04:34:49;;;;;;;34.47;21.42;;;6.30;99.90;;;;;;5010914;28;20458;-34
2022/03/28 04:37:16;;;;;;;38.97;23.35;;;6.30;99.90;;;;;;5012501;28;20046;-34
2022/03/28 04:39:42;;;;;;;48.70;23.13;;;6.40;99.90;;;;;;5005337;28;20050;-34
2022/03/28 04:42:09;;;;;;;74.43;24.65;;;6.40;99.90;;;;;;5000816;28;20034;-34
2022/03/28 04:44:36;;;;;;;36.33;21.73;;;6.50;99.90;;;;;;5002711;28;20035;-35
2022/03/28 04:47:04;;;;;;;50.33;23.83;;;6.40;99.90;;;;;;4995128;28;20482;-35
2022/03/28 04:49:31;;;;;;;43.65;22.10;;;6.40;99.90;;;;;;5012389;28;20045;-35
2022/03/28 04:51:58;;;;;;;37.53;22.65;;;6.40;99.90;;;;;;5007797;28;20052;-34
2022/03/28 04:54:24;;;;;;;44.08;22.48;;;6.40;99.90;;;;;;5010692;28;20042;-34
2022/03/28 04:56:51;;;;;;;33.67;22.35;;;6.30;99.90;;;;;;5005061;28;20041;-35
2022/03/28 04:59:18;;;;;;;33.13;20.77;;;6.30;99.90;;;;;;5011585;28;20060;-35
2022/03/28 05:01:44;;;;;;;37.25;23.10;;;6.30;99.90;;;;;;5008226;28;20060;-35
2022/03/28 05:04:13;;;;;;;44.30;24.98;;;6.30;99.90;;;;;;5011419;28;20044;-35
2022/03/28 05:06:39;;;;;;;32.22;21.85;;;6.20;99.90;;;;;;5011809;28;20054;-35
2022/03/28 05:09:06;;;;;;;36.63;22.02;;;6.20;99.90;;;;;;5014285;28;20049;-35
2022/03/28 05:11:33;;;;;;;39.05;22.45;;;6.20;99.90;;;;;;5015144;28;20496;-35
2022/03/28 05:14:00;;;;;;;48.10;25.27;;;6.20;99.90;;;;;;5010348;28;20057;-35
2022/03/28 05:16:27;;;;;;;46.72;26.58;;;6.30;99.90;;;;;;5014542;28;20112;-35
2022/03/28 05:18:54;;;;;;;38.72;24.30;;;6.30;99.90;;;;;;5015586;28;20054;-35
2022/03/28 05:21:22;;;;;;;53.85;28.73;;;6.20;99.90;;;;;;5015151;28;20054;-35
2022/03/28 05:23:48;;;;;;;44.03;27.17;;;6.20;99.90;;;;;;5014939;28;20398;-35
2022/03/28 05:26:15;;;;;;;49.63;28.92;;;6.20;99.90;;;;;;5014895;28;20046;-35
2022/03/28 05:28:42;;;;;;;49.20;30.05;;;6.20;99.90;;;;;;5005848;28;20037;-35
2022/03/28 05:31:08;;;;;;;53.28;29.73;;;6.30;99.90;;;;;;5005197;28;20366;-35
2022/03/28 05:33:35;;;;;;;49.20;30.77;;;6.20;99.90;;;;;;4997559;28;20068;-35
2022/03/28 05:36:02;;;;;;;54.67;31.00;;;6.20;99.90;;;;;;5008402;28;20299;-34
2022/03/28 05:38:30;;;;;;;48.55;30.92;;;6.10;99.90;;;;;;5006421;28;20132;-35
2022/03/28 05:40:57;;;;;;;54.10;30.13;;;6.10;99.90;;;;;;5014564;28;20493;-35
2022/03/28 05:43:24;;;;;;;42.78;26.38;;;6.20;99.90;;;;;;5014849;28;20076;-35
2022/03/28 05:45:52;;;;;;;44.00;27.13;;;6.10;99.90;;;;;;5011895;28;20046;-34
2022/03/28 05:48:18;;;;;;;50.17;28.50;;;6.10;99.90;;;;;;5013649;28;20111;-35
2022/03/28 05:50:46;;;;;;;42.53;27.15;;;6.20;99.90;;;;;;5013098;28;20046;-35
2022/03/28 05:53:13;;;;;;;44.03;23.65;;;6.10;99.90;;;;;;5011272;28;20065;-35
2022/03/28 05:55:41;;;;;;;34.33;21.15;;;6.00;99.90;;;;;;5012006;28;20158;-35
2022/03/28 05:58:08;;;;;;;37.47;21.88;;;6.00;99.90;;;;;;5014527;28;20096;-35
2022/03/28 06:00:35;;;;;;;34.42;21.52;;;6.10;99.90;;;;;;5013514;28;20046;-35
2022/03/28 06:03:02;;;;;;;37.35;22.52;;;6.00;99.90;;;;;;5013932;28;20052;-35
2022/03/28 06:05:28;;;;;;;31.45;19.55;;;6.00;99.90;;;;;;5013757;28;20055;-35
2022/03/28 06:07:55;;;;;;;35.65;18.30;;;6.00;99.90;;;;;;5014098;28;20044;-35
2022/03/28 06:10:22;;;;;;;45.03;17.85;;;6.10;99.90;;;;;;5012406;28;20052;-35
2022/03/28 06:12:50;;;;;;;47.08;18.85;;;6.00;99.90;;;;;;5014136;28;20367;-35
2022/03/28 06:15:18;;;;;;;52.60;17.17;;;6.00;99.90;;;;;;5013353;28;20054;-35
2022/03/28 06:17:44;;;;;;;27.75;16.30;;;5.90;99.90;;;;;;5012951;28;20069;-35
2022/03/28 06:20:11;;;;;;;32.22;15.48;;;5.90;99.90;;;;;;5000738;28;20049;-35
2022/03/28 06:22:38;;;;;;;31.05;17.17;;;5.90;99.90;;;;;;5014004;28;20133;-35
2022/03/28 06:25:06;;;;;;;24.60;15.57;;;6.00;99.90;;;;;;5004989;28;20125;-35
2022/03/28 06:27:33;;;;;;;24.08;14.80;;;6.00;99.90;;;;;;5013065;28;20060;-35
2022/03/28 06:30:01;;;;;;;19.77;13.50;;;6.10;99.90;;;;;;5012656;28;20046;-35
2022/03/28 06:32:28;;;;;;;20.45;13.00;;;6.20;99.90;;;;;;5011753;28;20401;-35
2022/03/28 06:34:54;;;;;;;22.33;14.40;;;6.10;99.90;;;;;;5013215;28;20124;-35
2022/03/28 06:37:23;;;;;;;23.52;14.27;;;6.10;99.90;;;;;;5011911;28;20050;-35
2022/03/28 06:39:49;;;;;;;21.15;12.75;;;6.20;99.90;;;;;;5008439;28;20045;-35
2022/03/28 06:42:16;;;;;;;20.27;12.25;;;6.20;99.90;;;;;;4999371;28;20060;-35
2022/03/28 06:44:43;;;;;;;23.45;12.15;;;6.20;99.90;;;;;;5013042;28;20386;-35
2022/03/28 06:47:11;;;;;;;18.05;10.20;;;6.30;99.90;;;;;;5013051;28;20052;-35
2022/03/28 06:49:37;;;;;;;15.43;9.18;;;6.30;99.90;;;;;;5011446;28;20500;-35
2022/03/28 06:52:05;;;;;;;16.98;9.27;;;6.30;99.90;;;;;;5012735;28;20050;-35
2022/03/28 06:54:33;;;;;;;12.20;8.02;;;6.20;99.90;;;;;;5009312;28;20401;-35
2022/03/28 06:57:00;;;;;;;14.02;9.48;;;6.30;99.90;;;;;;5011712;28;20468;-35
2022/03/28 06:59:27;;;;;;;11.60;7.68;;;6.20;99.90;;;;;;5011089;28;20050;-35
2022/03/28 07:01:54;;;;;;;21.13;7.90;;;6.20;99.90;;;;;;5008578;28;20050;-35
2022/03/28 07:04:22;;;;;;;10.15;7.25;;;6.20;99.90;;;;;;5008788;28;20455;-35
2022/03/28 07:06:48;;;;;;;18.58;7.40;;;6.20;99.90;;;;;;5012345;28;20052;-35
2022/03/28 07:09:15;;;;;;;12.60;6.90;;;6.20;99.90;;;;;;5029691;28;20496;-35
2022/03/28 07:11:42;;;;;;;12.50;7.72;;;6.20;99.90;;;;;;4996964;28;20339;-35
2022/03/28 07:14:08;;;;;;;14.38;7.43;;;6.20;99.90;;;;;;5006646;28;20052;-34
2022/03/28 07:16:35;;;;;;;11.10;6.93;;;6.10;99.90;;;;;;5011694;28;20096;-34
2022/03/28 07:19:02;;;;;;;12.48;7.65;;;6.10;99.90;;;;;;5010892;28;20401;-34
2022/03/28 07:21:30;;;;;;;15.38;7.93;;;6.00;99.90;;;;;;5012741;28;20391;-33
2022/03/28 07:23:57;;;;;;;15.10;7.78;;;6.00;99.90;;;;;;5010088;28;20060;-34
2022/03/28 07:26:24;;;;;;;17.65;8.10;;;5.90;99.90;;;;;;4992871;28;20494;-34
2022/03/28 07:28:50;;;;;;;14.20;7.30;;;5.80;99.90;;;;;;4995052;28;20052;-34
2022/03/28 07:31:18;;;;;;;13.55;7.78;;;5.80;99.90;;;;;;5012672;28;20050;-34
2022/03/28 07:33:44;;;;;;;15.57;8.52;;;5.70;99.90;;;;;;5008725;28;20045;-34
2022/03/28 07:36:11;;;;;;;12.35;7.22;;;5.80;99.90;;;;;;5012199;28;20381;-35
2022/03/28 07:38:39;;;;;;;15.27;8.77;;;5.80;99.90;;;;;;5011395;28;20044;-35
2022/03/28 07:41:06;;;;;;;16.77;8.93;;;5.90;99.90;;;;;;5005277;28;20060;-35
2022/03/28 07:43:33;;;;;;;15.80;8.77;;;5.90;99.90;;;;;;5009370;28;20489;-35
2022/03/28 07:46:00;;;;;;;15.57;8.57;;;6.10;99.90;;;;;;5009286;28;20045;-35
2022/03/28 07:48:27;;;;;;;15.32;8.75;;;6.10;99.90;;;;;;5009639;28;20050;-35
2022/03/28 07:50:55;;;;;;;17.20;8.73;;;6.20;99.90;;;;;;5001315;28;20062;-35
2022/03/28 07:53:23;;;;;;;17.65;9.60;;;6.30;99.90;;;;;;5011027;28;20113;-34
2022/03/28 07:55:51;;;;;;;19.45;10.48;;;6.40;99.90;;;;;;5006270;28;20485;-35
2022/03/28 07:58:17;;;;;;;15.50;8.82;;;6.50;99.90;;;;;;5010713;28;20137;-35
2022/03/28 08:00:44;;;;;;;21.85;10.43;;;6.50;99.90;;;;;;5009765;28;20117;-35
2022/03/28 08:03:11;;;;;;;21.42;11.63;;;6.60;99.90;;;;;;5009773;28;20136;-35
2022/03/28 08:05:38;;;;;;;18.65;9.88;;;6.70;99.90;;;;;;5009364;28;20482;-35
2022/03/28 08:08:07;;;;;;;23.30;12.13;;;6.70;99.90;;;;;;5010360;28;20037;-35
2022/03/28 08:10:34;;;;;;;23.45;11.98;;;6.80;99.90;;;;;;5010450;28;20045;-35
2022/03/28 08:13:02;;;;;;;23.33;12.38;;;6.80;99.90;;;;;;5011237;28;20060;-35
2022/03/28 08:15:30;;;;;;;23.33;13.27;;;6.80;99.90;;;;;;5010516;28;20124;-35
2022/03/28 08:17:58;;;;;;;19.33;11.00;;;6.90;99.90;;;;;;5009217;28;20049;-35
2022/03/28 08:20:25;;;;;;;22.65;12.43;;;6.90;99.90;;;;;;5005959;28;20042;-36
2022/03/28 08:22:53;;;;;;;24.80;12.82;;;6.90;99.90;;;;;;5004809;28;20034;-34
2022/03/28 08:25:20;;;;;;;21.02;11.95;;;6.90;99.90;;;;;;5010410;28;20042;-36
2022/03/28 08:27:47;;;;;;;24.17;12.02;;;6.90;99.90;;;;;;5009408;28;20041;-35
2022/03/28 08:30:15;;;;;;;20.42;10.70;;;6.90;99.90;;;;;;5009556;28;20482;-34
2022/03/28 08:32:42;;;;;;;28.13;14.32;;;6.90;99.90;;;;;;5009733;28;20042;-34
2022/03/28 08:35:09;;;;;;;21.98;12.55;;;6.90;99.90;;;;;;5008000;28;20056;-34
2022/03/28 08:37:36;;;;;;;21.77;11.77;;;6.90;99.90;;;;;;5001722;28;20062;-35
2022/03/28 08:40:03;;;;;;;21.85;11.10;;;6.90;99.90;;;;;;5008794;28;20049;-35
2022/03/28 08:42:30;;;;;;;20.63;11.23;;;6.80;99.90;;;;;;5013036;28;20046;-34
2022/03/28 08:44:56;;;;;;;24.20;12.43;;;6.80;99.90;;;;;;5013317;28;20290;-34
2022/03/28 08:47:24;;;;;;;22.35;11.45;;;6.90;99.90;;;;;;5012383;28;20045;-35
2022/03/28 08:49:52;;;;;;;23.58;12.10;;;6.90;99.90;;;;;;5011188;28;20042;-35
2022/03/28 08:52:23;;;;;;;21.95;11.82;;;7.00;99.90;;;;;;5013350;28;20045;-35
2022/03/28 08:54:49;;;;;;;26.17;12.90;;;7.00;99.90;;;;;;5010885;28;20104;-35
2022/03/28 08:57:16;;;;;;;22.48;12.05;;;7.10;99.90;;;;;;5010597;28;20050;-33
2022/03/28 08:59:43;;;;;;;24.25;12.15;;;7.20;99.90;;;;;;5000916;28;20065;-34
2022/03/28 09:02:32;;;;;;;23.70;11.65;;;7.20;99.90;;;;;;5008721;28;20396;-34
2022/03/28 09:04:59;;;;;;;28.73;12.25;;;7.20;99.90;;;;;;5012328;28;20049;-34
2022/03/28 09:07:27;;;;;;;22.27;11.43;;;7.20;99.90;;;;;;5014011;28;20042;-34
2022/03/28 09:09:57;;;;;;;20.10;10.65;;;7.10;99.90;;;;;;5010870;28;20049;-34
2022/03/28 09:12:24;;;;;;;22.63;11.48;;;7.20;99.90;;;;;;5013249;28;20057;-33
2022/03/28 09:14:54;;;;;;;21.10;11.10;;;7.30;99.90;;;;;;5012231;28;20085;-35
2022/03/28 09:17:21;;;;;;;19.30;10.77;;;7.30;99.90;;;;;;5013788;28;20389;-34
2022/03/28 09:19:51;;;;;;;22.23;11.55;;;7.40;99.90;;;;;;5010779;28;20056;-34
2022/03/28 09:22:23;;;;;;;20.45;10.70;;;7.50;99.90;;;;;;5014226;28;20050;-34
2022/03/28 09:24:50;;;;;;;22.48;12.23;;;7.50;99.90;;;;;;5012645;28;20107;-34
2022/03/28 09:27:20;;;;;;;25.40;11.23;;;7.50;99.90;;;;;;5013609;28;20064;-34
2022/03/28 09:30:01;;;;;;;18.52;10.75;;;7.60;99.90;;;;;;5013011;28;20100;-34
2022/03/28 09:32:28;;;;;;;19.92;11.50;;;7.70;99.90;;;;;;5011715;28;20384;-34
2022/03/28 09:35:21;;;;;;;17.63;10.07;;;7.80;99.90;;;;;;5014681;28;20053;-34
2022/03/28 09:37:58;;;;;;;23.88;11.88;;;8.00;99.90;;;;;;5013964;28;20375;-34
2022/03/28 09:40:27;;;;;;;18.08;10.68;;;8.00;99.90;;;;;;5013210;28;20120;-34
2022/03/28 09:42:54;;;;;;;22.17;11.50;;;8.00;99.90;;;;;;5008315;28;20050;-34
2022/03/28 09:45:22;;;;;;;20.55;11.25;;;8.00;99.90;;;;;;5011905;28;20049;-34
2022/03/28 09:48:02;;;;;;;18.55;10.32;;;8.10;99.90;;;;;;5012311;28;20052;-34
2022/03/28 09:50:31;;;;;;;19.92;10.75;;;8.20;99.90;;;;;;5013638;28;20057;-34
2022/03/28 09:53:12;;;;;;;23.08;11.13;;;8.20;99.90;;;;;;5008818;28;20544;-34
2022/03/28 09:55:47;;;;;;;18.33;10.20;;;8.40;99.90;;;;;;5008847;28;20042;-35
2022/03/28 09:58:30;;;;;;;16.42;10.55;;;8.40;99.90;;;;;;5003828;28;20640;-35
2022/03/28 10:00:57;;;;;;;16.73;9.18;;;8.40;99.90;;;;;;5012695;28;20040;-35
2022/03/28 10:03:23;;;;;;;15.25;9.60;;;8.40;99.90;;;;;;5010848;28;20045;-34
2022/03/28 10:05:52;;;;;;;18.52;9.82;;;8.40;99.90;;;;;;5007335;28;20045;-35
2022/03/28 10:08:21;;;;;;;15.13;9.40;;;8.50;99.90;;;;;;5007693;28;20046;-35
2022/03/28 10:10:48;;;;;;;17.17;10.07;;;8.60;99.90;;;;;;5005587;28;20045;-35
2022/03/28 10:13:15;;;;;;;14.55;9.77;;;8.80;99.90;;;;;;5009813;28;20125;-35
2022/03/28 10:15:41;;;;;;;15.48;9.90;;;8.90;99.90;;;;;;5012425;28;20389;-35
2022/03/28 10:18:08;;;;;;;15.20;9.88;;;9.10;99.90;;;;;;5010144;28;20054;-35
2022/03/28 10:20:35;;;;;;;19.15;10.63;;;9.10;99.90;;;;;;5009786;28;20467;-35
2022/03/28 10:23:03;;;;;;;18.08;10.50;;;9.20;99.90;;;;;;5009414;28;20058;-35
2022/03/28 10:25:29;;;;;;;16.40;10.95;;;9.20;99.90;;;;;;5002021;28;20053;-34
2022/03/28 10:27:56;;;;;;;15.75;9.90;;;9.10;99.90;;;;;;5011764;28;20045;-35
2022/03/28 10:30:27;;;;;;;17.23;11.00;;;9.00;99.90;;;;;;5012585;28;20042;-35
2022/03/28 10:33:07;;;;;;;18.95;11.00;;;9.00;99.90;;;;;;5012166;28;20049;-35
2022/03/28 10:35:34;;;;;;;22.48;11.60;;;9.10;99.90;;;;;;5011060;28;21184;-35
2022/03/28 10:38:15;;;;;;;19.05;10.60;;;9.30;99.90;;;;;;5004786;28;20053;-35
2022/03/28 10:40:53;;;;;;;18.35;11.45;;;9.40;99.90;;;;;;5008274;28;20037;-35
2022/03/28 10:43:19;;;;;;;17.15;11.57;;;9.50;99.90;;;;;;5007578;28;20069;-35
2022/03/28 10:45:49;;;;;;;23.85;12.57;;;9.50;99.90;;;;;;5012043;28;20041;-35
2022/03/28 10:48:16;;;;;;;20.88;11.65;;;9.60;99.90;;;;;;5011586;28;20045;-35
2022/03/28 10:50:45;;;;;;;22.80;13.30;;;9.80;99.90;;;;;;5010716;28;20378;-35
2022/03/28 10:53:15;;;;;;;23.30;13.18;;;9.80;99.90;;;;;;5007776;28;20466;-33
2022/03/28 10:55:47;;;;;;;21.98;13.15;;;9.80;99.90;;;;;;5006617;28;20105;-35
2022/03/28 10:58:14;;;;;;;;;;;9.80;99.90;;;;;;5009857;28;20056;-35
2022/03/28 11:01:11;;;;;;;24.13;13.02;;;9.90;99.90;;;;;;5011390;28;19917;-35
2022/03/28 11:03:39;;;;;;;22.45;12.77;;;10.00;99.90;;;;;;5012278;28;20045;-34
2022/03/28 11:06:06;;;;;;;20.50;12.80;;;10.10;99.90;;;;;;5014343;28;20045;-34
2022/03/28 11:08:36;;;;;;;22.50;13.40;;;10.20;99.90;;;;;;5013818;28;20049;-35
2022/03/28 11:11:17;;;;;;;22.05;13.40;;;10.10;99.90;;;;;;5003363;28;20034;-35
2022/03/28 11:13:43;;;;;;;23.60;14.25;;;10.20;99.90;;;;;;5013265;28;20050;-35
2022/03/28 11:16:20;;;;;;;25.20;14.13;;;10.20;99.90;;;;;;5013240;28;20056;-34
2022/03/28 11:19:20;;;;;;;18.95;12.63;;;10.20;99.90;;;;;;5012285;28;20552;-34
2022/03/28 11:22:00;;;;;;;22.40;13.70;;;10.40;99.90;;;;;;5013236;28;20498;-34
2022/03/28 11:24:45;;;;;;;19.85;12.90;;;10.80;99.90;;;;;;5013759;28;20049;-35
2022/03/28 11:27:12;;;;;;;24.02;13.70;;;11.10;99.90;;;;;;5013166;28;20048;-35
2022/03/28 11:29:38;;;;;;;19.88;14.27;;;11.40;99.90;;;;;;5013614;28;20474;-35
2022/03/28 11:32:06;;;;;;;24.10;14.98;;;11.70;99.90;;;;;;5013308;28;20041;-35
2022/03/28 11:34:33;;;;;;;22.55;15.00;;;11.90;99.90;;;;;;5013258;28;20068;-35
2022/03/28 11:36:59;;;;;;;24.05;14.90;;;11.90;99.90;;;;;;5013334;28;20131;-35
2022/03/28 11:39:27;;;;;;;23.30;15.20;;;12.00;99.90;;;;;;5011260;28;20060;-35
2022/03/28 11:41:56;;;;;;;23.05;13.88;;;12.00;99.90;;;;;;4999436;28;20100;-35
2022/03/28 11:44:24;;;;;;;27.02;16.00;;;12.00;99.90;;;;;;4994246;28;20061;-35
2022/03/28 11:46:54;;;;;;;28.02;15.68;;;12.10;99.90;;;;;;4994130;28;20386;-35
2022/03/28 11:49:20;;;;;;;21.95;14.93;;;12.10;99.90;;;;;;5006321;28;20034;-35
2022/03/28 11:51:48;;;;;;;25.15;16.08;;;12.10;99.90;;;;;;5010944;28;20042;-35
2022/03/28 11:54:16;;;;;;;23.70;15.43;;;12.30;99.90;;;;;;5013180;28;20060;-35
2022/03/28 11:59:26;;;;;;;24.75;15.82;;;12.50;99.90;;;;;;4999157;28;20378;-35
2022/03/28 12:01:56;;;;;;;24.85;16.10;;;12.70;99.90;;;;;;5012272;28;20084;-36
2022/03/28 12:04:22;;;;;;;21.67;16.40;;;12.80;99.90;;;;;;5010520;28;20054;-35
2022/03/28 12:06:51;;;;;;;27.60;17.40;;;12.80;99.50;;;;;;5013494;28;20056;-35
2022/03/28 12:09:18;;;;;;;25.88;17.30;;;12.70;99.30;;;;;;5009502;28;20050;-35
2022/03/28 12:11:47;;;;;;;23.33;16.10;;;12.60;99.20;;;;;;5009894;28;20426;-35
2022/03/28 12:14:15;;;;;;;27.05;17.05;;;12.50;99.80;;;;;;5012643;28;20125;-35
2022/03/28 12:16:47;;;;;;;22.55;16.67;;;12.60;99.00;;;;;;4998674;28;20097;-35
2022/03/28 12:19:17;;;;;;;;;;;12.70;99.10;;;;;;5007311;28;20054;-35
2022/03/28 12:21:44;;;;;;;22.15;15.68;;;12.80;98.30;;;;;;5013094;28;19924;-35
2022/03/28 12:24:11;;;;;;;22.52;16.38;;;12.90;99.10;;;;;;5013238;28;20045;-35
2022/03/28 12:26:42;;;;;;;23.67;16.65;;;13.00;98.90;;;;;;5000596;28;20061;-34
2022/03/28 12:29:11;;;;;;;28.10;16.65;;;13.10;98.60;;;;;;5005713;28;20077;-35
2022/03/28 12:31:37;;;;;;;23.10;14.50;;;13.20;98.50;;;;;;5013126;28;20129;-35
2022/03/28 12:34:06;;;;;;;22.23;16.80;;;13.40;98.80;;;;;;5013227;28;20045;-34
2022/03/28 12:36:34;;;;;;;21.77;16.25;;;13.60;98.10;;;;;;5002181;28;20140;-35
2022/03/28 12:39:01;;;;;;;21.50;16.50;;;13.60;97.70;;;;;;5003493;28;20053;-34
2022/03/28 12:41:28;;;;;;;21.40;16.17;;;13.70;97.60;;;;;;5013002;28;20057;-35
2022/03/28 12:43:55;;;;;;;19.52;15.63;;;13.80;96.70;;;;;;5012206;28;20081;-35